sensor_id;sensor_type;location;lat;lon;timestamp;P1;durP1;ratioP1;P2;durP2;ratioP2
55931;SDS011;41837;55.700;37.984;2024-03-29T00:01:34;28.65;;;11.07;;
55931;SDS011;41837;55.700;37.984;2024-03-29T00:04:00;26.17;;;10.43;;
55931;SDS011;41837;55.700;37.984;2024-03-29T00:06:27;25.25;;;10.55;;
55931;SDS011;41837;55.700;37.984;2024-03-29T00:08:53;27.50;;;10.80;;
55931;SDS011;41837;55.700;37.984;2024-03-29T00:11:19;29.02;;;11.73;;
55931;SDS011;41837;55.700;37.984;2024-03-29T00:13:45;28.23;;;10.85;;
55931;SDS011;41837;55.700;37.984;2024-03-29T00:16:11;24.40;;;10.52;;
55931;SDS011;41837;55.700;37.984;2024-03-29T00:18:37;28.35;;;11.05;;
55931;SDS011;41837;55.700;37.984;2024-03-29T00:21:04;30.88;;;11.35;;
55931;SDS011;41837;55.700;37.984;2024-03-29T00:23:30;26.00;;;10.75;;
55931;SDS011;41837;55.700;37.984;2024-03-29T00:25:57;31.15;;;11.05;;
55931;SDS011;41837;55.700;37.984;2024-03-29T00:28:24;30.02;;;11.65;;
55931;SDS011;41837;55.700;37.984;2024-03-29T00:30:50;25.58;;;10.68;;
55931;SDS011;41837;55.700;37.984;2024-03-29T00:33:17;27.80;;;10.82;;
55931;SDS011;41837;55.700;37.984;2024-03-29T00:35:43;25.38;;;11.07;;
55931;SDS011;41837;55.700;37.984;2024-03-29T00:38:09;26.98;;;10.40;;
55931;SDS011;41837;55.700;37.984;2024-03-29T00:40:36;26.85;;;11.48;;
55931;SDS011;41837;55.700;37.984;2024-03-29T00:43:02;30.75;;;11.75;;
55931;SDS011;41837;55.700;37.984;2024-03-29T00:45:29;30.27;;;12.00;;
55931;SDS011;41837;55.700;37.984;2024-03-29T00:47:55;28.65;;;12.18;;
55931;SDS011;41837;55.700;37.984;2024-03-29T00:50:21;27.58;;;10.38;;
55931;SDS011;41837;55.700;37.984;2024-03-29T00:52:48;22.23;;;10.30;;
55931;SDS011;41837;55.700;37.984;2024-03-29T00:55:14;28.08;;;11.50;;
55931;SDS011;41837;55.700;37.984;2024-03-29T00:57:40;25.25;;;11.40;;
55931;SDS011;41837;55.700;37.984;2024-03-29T01:00:07;30.38;;;11.40;;
55931;SDS011;41837;55.700;37.984;2024-03-29T01:03:00;22.40;;;10.60;;
55931;SDS011;41837;55.700;37.984;2024-03-29T01:05:26;28.73;;;11.35;;
55931;SDS011;41837;55.700;37.984;2024-03-29T01:07:52;25.75;;;10.15;;
55931;SDS011;41837;55.700;37.984;2024-03-29T01:10:19;28.83;;;11.15;;
55931;SDS011;41837;55.700;37.984;2024-03-29T01:13:12;27.08;;;11.23;;
55931;SDS011;41837;55.700;37.984;2024-03-29T01:15:38;29.40;;;11.50;;
55931;SDS011;41837;55.700;37.984;2024-03-29T01:18:05;26.95;;;10.88;;
55931;SDS011;41837;55.700;37.984;2024-03-29T01:20:31;23.48;;;10.45;;
55931;SDS011;41837;55.700;37.984;2024-03-29T01:22:57;28.00;;;10.18;;
55931;SDS011;41837;55.700;37.984;2024-03-29T01:25:23;22.50;;;10.00;;
55931;SDS011;41837;55.700;37.984;2024-03-29T01:27:50;23.70;;;11.07;;
55931;SDS011;41837;55.700;37.984;2024-03-29T01:30:16;25.95;;;11.00;;
55931;SDS011;41837;55.700;37.984;2024-03-29T01:32:42;23.73;;;11.35;;
55931;SDS011;41837;55.700;37.984;2024-03-29T01:35:08;26.83;;;11.80;;
55931;SDS011;41837;55.700;37.984;2024-03-29T01:37:35;28.38;;;11.50;;
55931;SDS011;41837;55.700;37.984;2024-03-29T01:40:01;24.15;;;11.10;;
55931;SDS011;41837;55.700;37.984;2024-03-29T01:42:29;25.38;;;10.68;;
55931;SDS011;41837;55.700;37.984;2024-03-29T01:44:55;26.77;;;10.93;;
55931;SDS011;41837;55.700;37.984;2024-03-29T01:47:21;24.30;;;11.27;;
55931;SDS011;41837;55.700;37.984;2024-03-29T01:49:48;30.48;;;11.75;;
55931;SDS011;41837;55.700;37.984;2024-03-29T01:52:14;26.15;;;10.80;;
55931;SDS011;41837;55.700;37.984;2024-03-29T01:54:42;24.08;;;11.30;;
55931;SDS011;41837;55.700;37.984;2024-03-29T01:57:10;26.98;;;10.82;;
55931;SDS011;41837;55.700;37.984;2024-03-29T01:59:40;30.20;;;11.77;;
55931;SDS011;41837;55.700;37.984;2024-03-29T02:02:09;25.60;;;11.15;;
55931;SDS011;41837;55.700;37.984;2024-03-29T02:04:37;23.77;;;10.25;;
55931;SDS011;41837;55.700;37.984;2024-03-29T02:07:03;23.95;;;10.48;;
55931;SDS011;41837;55.700;37.984;2024-03-29T02:09:30;24.75;;;9.88;;
55931;SDS011;41837;55.700;37.984;2024-03-29T02:11:56;24.15;;;10.65;;
55931;SDS011;41837;55.700;37.984;2024-03-29T02:14:22;22.35;;;9.90;;
55931;SDS011;41837;55.700;37.984;2024-03-29T02:16:49;24.05;;;10.38;;
55931;SDS011;41837;55.700;37.984;2024-03-29T02:19:15;20.73;;;10.35;;
55931;SDS011;41837;55.700;37.984;2024-03-29T02:21:43;20.60;;;9.93;;
55931;SDS011;41837;55.700;37.984;2024-03-29T02:24:14;21.85;;;8.75;;
55931;SDS011;41837;55.700;37.984;2024-03-29T02:26:43;22.98;;;9.57;;
55931;SDS011;41837;55.700;37.984;2024-03-29T02:29:35;21.25;;;9.60;;
55931;SDS011;41837;55.700;37.984;2024-03-29T02:32:05;22.73;;;9.35;;
55931;SDS011;41837;55.700;37.984;2024-03-29T02:34:31;20.02;;;9.18;;
55931;SDS011;41837;55.700;37.984;2024-03-29T02:36:57;22.73;;;9.32;;
55931;SDS011;41837;55.700;37.984;2024-03-29T02:39:24;19.45;;;8.85;;
55931;SDS011;41837;55.700;37.984;2024-03-29T02:41:51;17.85;;;9.23;;
55931;SDS011;41837;55.700;37.984;2024-03-29T02:44:17;17.92;;;8.18;;
55931;SDS011;41837;55.700;37.984;2024-03-29T02:46:44;16.40;;;9.07;;
55931;SDS011;41837;55.700;37.984;2024-03-29T02:49:10;28.58;;;9.88;;
55931;SDS011;41837;55.700;37.984;2024-03-29T02:51:36;24.67;;;9.73;;
55931;SDS011;41837;55.700;37.984;2024-03-29T02:54:03;18.67;;;8.25;;
55931;SDS011;41837;55.700;37.984;2024-03-29T02:56:29;23.83;;;9.35;;
55931;SDS011;41837;55.700;37.984;2024-03-29T02:58:56;20.88;;;8.95;;
55931;SDS011;41837;55.700;37.984;2024-03-29T03:01:22;25.95;;;9.13;;
55931;SDS011;41837;55.700;37.984;2024-03-29T03:03:49;21.30;;;8.60;;
55931;SDS011;41837;55.700;37.984;2024-03-29T03:06:15;21.90;;;8.65;;
55931;SDS011;41837;55.700;37.984;2024-03-29T03:08:41;19.52;;;9.30;;
55931;SDS011;41837;55.700;37.984;2024-03-29T03:11:26;23.92;;;9.40;;
55931;SDS011;41837;55.700;37.984;2024-03-29T03:13:52;17.45;;;8.18;;
55931;SDS011;41837;55.700;37.984;2024-03-29T03:16:18;17.17;;;8.45;;
55931;SDS011;41837;55.700;37.984;2024-03-29T03:18:44;19.52;;;8.50;;
55931;SDS011;41837;55.700;37.984;2024-03-29T03:21:10;18.17;;;8.38;;
55931;SDS011;41837;55.700;37.984;2024-03-29T03:23:40;20.15;;;8.35;;
55931;SDS011;41837;55.700;37.984;2024-03-29T03:26:06;17.80;;;7.88;;
55931;SDS011;41837;55.700;37.984;2024-03-29T03:28:32;20.33;;;8.75;;
55931;SDS011;41837;55.700;37.984;2024-03-29T03:30:58;20.63;;;8.88;;
55931;SDS011;41837;55.700;37.984;2024-03-29T03:33:25;23.45;;;9.25;;
55931;SDS011;41837;55.700;37.984;2024-03-29T03:35:52;17.98;;;8.52;;
55931;SDS011;41837;55.700;37.984;2024-03-29T03:38:18;20.60;;;8.52;;
55931;SDS011;41837;55.700;37.984;2024-03-29T03:40:45;18.98;;;8.27;;
55931;SDS011;41837;55.700;37.984;2024-03-29T03:43:11;17.90;;;8.95;;
55931;SDS011;41837;55.700;37.984;2024-03-29T03:45:40;19.08;;;8.55;;
55931;SDS011;41837;55.700;37.984;2024-03-29T03:48:07;20.27;;;7.32;;
55931;SDS011;41837;55.700;37.984;2024-03-29T03:50:36;17.05;;;8.20;;
55931;SDS011;41837;55.700;37.984;2024-03-29T03:53:03;20.15;;;7.72;;
55931;SDS011;41837;55.700;37.984;2024-03-29T03:55:29;16.58;;;7.95;;
55931;SDS011;41837;55.700;37.984;2024-03-29T03:57:56;24.27;;;8.30;;
55931;SDS011;41837;55.700;37.984;2024-03-29T04:00:22;20.80;;;7.63;;
55931;SDS011;41837;55.700;37.984;2024-03-29T04:02:49;17.40;;;8.05;;
55931;SDS011;41837;55.700;37.984;2024-03-29T04:05:19;24.70;;;7.65;;
55931;SDS011;41837;55.700;37.984;2024-03-29T04:07:46;22.48;;;7.68;;
55931;SDS011;41837;55.700;37.984;2024-03-29T04:10:12;16.75;;;7.43;;
55931;SDS011;41837;55.700;37.984;2024-03-29T04:12:39;17.38;;;8.02;;
55931;SDS011;41837;55.700;37.984;2024-03-29T04:15:30;16.00;;;6.95;;
55931;SDS011;41837;55.700;37.984;2024-03-29T04:17:59;24.70;;;8.27;;
55931;SDS011;41837;55.700;37.984;2024-03-29T04:20:26;24.05;;;7.95;;
55931;SDS011;41837;55.700;37.984;2024-03-29T04:22:51;18.33;;;6.95;;
55931;SDS011;41837;55.700;37.984;2024-03-29T04:25:18;14.80;;;6.80;;
55931;SDS011;41837;55.700;37.984;2024-03-29T04:27:44;13.32;;;6.15;;
55931;SDS011;41837;55.700;37.984;2024-03-29T04:30:11;15.73;;;6.22;;
55931;SDS011;41837;55.700;37.984;2024-03-29T04:32:37;15.93;;;6.85;;
55931;SDS011;41837;55.700;37.984;2024-03-29T04:35:04;18.48;;;7.22;;
55931;SDS011;41837;55.700;37.984;2024-03-29T04:37:31;15.05;;;7.25;;
55931;SDS011;41837;55.700;37.984;2024-03-29T04:39:57;17.20;;;7.32;;
55931;SDS011;41837;55.700;37.984;2024-03-29T04:42:23;20.23;;;5.75;;
55931;SDS011;41837;55.700;37.984;2024-03-29T04:44:50;18.05;;;7.25;;
55931;SDS011;41837;55.700;37.984;2024-03-29T04:47:17;17.52;;;6.47;;
55931;SDS011;41837;55.700;37.984;2024-03-29T04:49:43;16.15;;;7.13;;
55931;SDS011;41837;55.700;37.984;2024-03-29T04:52:09;25.83;;;6.68;;
55931;SDS011;41837;55.700;37.984;2024-03-29T04:54:36;14.32;;;6.70;;
55931;SDS011;41837;55.700;37.984;2024-03-29T04:57:02;15.00;;;7.10;;
55931;SDS011;41837;55.700;37.984;2024-03-29T04:59:32;15.90;;;6.15;;
55931;SDS011;41837;55.700;37.984;2024-03-29T05:01:59;14.93;;;6.25;;
55931;SDS011;41837;55.700;37.984;2024-03-29T05:04:51;13.02;;;6.03;;
55931;SDS011;41837;55.700;37.984;2024-03-29T05:07:19;14.05;;;6.07;;
55931;SDS011;41837;55.700;37.984;2024-03-29T05:09:45;15.38;;;6.80;;
55931;SDS011;41837;55.700;37.984;2024-03-29T05:12:12;21.63;;;6.82;;
55931;SDS011;41837;55.700;37.984;2024-03-29T05:14:38;10.45;;;5.10;;
55931;SDS011;41837;55.700;37.984;2024-03-29T05:17:05;20.95;;;5.93;;
55931;SDS011;41837;55.700;37.984;2024-03-29T05:19:31;17.35;;;6.13;;
55931;SDS011;41837;55.700;37.984;2024-03-29T05:21:57;17.02;;;6.53;;
55931;SDS011;41837;55.700;37.984;2024-03-29T05:24:23;14.90;;;5.38;;
55931;SDS011;41837;55.700;37.984;2024-03-29T05:26:50;15.75;;;6.03;;
55931;SDS011;41837;55.700;37.984;2024-03-29T05:29:19;12.57;;;5.15;;
55931;SDS011;41837;55.700;37.984;2024-03-29T05:31:44;14.30;;;5.28;;
55931;SDS011;41837;55.700;37.984;2024-03-29T05:34:11;11.23;;;5.22;;
55931;SDS011;41837;55.700;37.984;2024-03-29T05:36:37;13.43;;;5.63;;
55931;SDS011;41837;55.700;37.984;2024-03-29T05:39:04;14.88;;;5.95;;
55931;SDS011;41837;55.700;37.984;2024-03-29T05:41:30;13.68;;;5.15;;
55931;SDS011;41837;55.700;37.984;2024-03-29T05:43:57;12.50;;;5.60;;
55931;SDS011;41837;55.700;37.984;2024-03-29T05:46:24;18.30;;;5.28;;
55931;SDS011;41837;55.700;37.984;2024-03-29T05:48:50;11.20;;;5.85;;
55931;SDS011;41837;55.700;37.984;2024-03-29T05:51:17;11.95;;;5.72;;
55931;SDS011;41837;55.700;37.984;2024-03-29T05:53:43;14.40;;;4.72;;
55931;SDS011;41837;55.700;37.984;2024-03-29T05:56:09;17.15;;;5.47;;
55931;SDS011;41837;55.700;37.984;2024-03-29T05:58:35;13.77;;;5.68;;
55931;SDS011;41837;55.700;37.984;2024-03-29T06:01:02;12.75;;;5.45;;
55931;SDS011;41837;55.700;37.984;2024-03-29T06:03:28;11.43;;;5.82;;
55931;SDS011;41837;55.700;37.984;2024-03-29T06:05:55;15.35;;;6.15;;
55931;SDS011;41837;55.700;37.984;2024-03-29T06:08:22;15.00;;;6.54;;
55931;SDS011;41837;55.700;37.984;2024-03-29T06:10:49;13.85;;;5.88;;
55931;SDS011;41837;55.700;37.984;2024-03-29T06:13:16;18.80;;;6.55;;
55931;SDS011;41837;55.700;37.984;2024-03-29T06:16:00;13.30;;;5.10;;
55931;SDS011;41837;55.700;37.984;2024-03-29T06:18:45;20.55;;;5.63;;
55931;SDS011;41837;55.700;37.984;2024-03-29T06:21:15;15.45;;;5.57;;
55931;SDS011;41837;55.700;37.984;2024-03-29T06:23:41;18.35;;;7.72;;
55931;SDS011;41837;55.700;37.984;2024-03-29T06:26:07;17.60;;;5.97;;
55931;SDS011;41837;55.700;37.984;2024-03-29T06:28:33;12.85;;;5.47;;
55931;SDS011;41837;55.700;37.984;2024-03-29T06:30:59;19.13;;;7.50;;
55931;SDS011;41837;55.700;37.984;2024-03-29T06:33:27;15.18;;;6.85;;
55931;SDS011;41837;55.700;37.984;2024-03-29T06:35:54;16.10;;;5.75;;
55931;SDS011;41837;55.700;37.984;2024-03-29T06:38:20;14.55;;;6.07;;
55931;SDS011;41837;55.700;37.984;2024-03-29T06:40:47;14.90;;;6.38;;
55931;SDS011;41837;55.700;37.984;2024-03-29T06:43:13;14.35;;;5.57;;
55931;SDS011;41837;55.700;37.984;2024-03-29T06:45:40;10.13;;;5.45;;
55931;SDS011;41837;55.700;37.984;2024-03-29T06:48:08;14.75;;;6.30;;
55931;SDS011;41837;55.700;37.984;2024-03-29T06:50:35;15.73;;;6.28;;
55931;SDS011;41837;55.700;37.984;2024-03-29T06:53:02;17.65;;;6.47;;
55931;SDS011;41837;55.700;37.984;2024-03-29T06:55:30;13.52;;;6.18;;
55931;SDS011;41837;55.700;37.984;2024-03-29T06:57:57;19.05;;;6.47;;
55931;SDS011;41837;55.700;37.984;2024-03-29T07:00:23;12.80;;;6.57;;
55931;SDS011;41837;55.700;37.984;2024-03-29T07:02:49;13.27;;;6.35;;
55931;SDS011;41837;55.700;37.984;2024-03-29T07:05:15;11.65;;;5.80;;
55931;SDS011;41837;55.700;37.984;2024-03-29T07:07:41;13.95;;;6.05;;
55931;SDS011;41837;55.700;37.984;2024-03-29T07:10:08;15.75;;;6.00;;
55931;SDS011;41837;55.700;37.984;2024-03-29T07:12:35;17.02;;;6.53;;
55931;SDS011;41837;55.700;37.984;2024-03-29T07:15:00;15.80;;;6.32;;
55931;SDS011;41837;55.700;37.984;2024-03-29T07:17:27;11.73;;;6.10;;
55931;SDS011;41837;55.700;37.984;2024-03-29T07:19:53;15.80;;;6.20;;
55931;SDS011;41837;55.700;37.984;2024-03-29T07:22:20;16.05;;;7.20;;
55931;SDS011;41837;55.700;37.984;2024-03-29T07:24:46;14.07;;;6.88;;
55931;SDS011;41837;55.700;37.984;2024-03-29T07:27:12;16.05;;;6.85;;
55931;SDS011;41837;55.700;37.984;2024-03-29T07:29:40;24.38;;;6.63;;
55931;SDS011;41837;55.700;37.984;2024-03-29T07:32:07;13.50;;;6.18;;
55931;SDS011;41837;55.700;37.984;2024-03-29T07:34:34;13.77;;;6.53;;
55931;SDS011;41837;55.700;37.984;2024-03-29T07:37:00;15.30;;;6.25;;
55931;SDS011;41837;55.700;37.984;2024-03-29T07:39:27;17.38;;;6.82;;
55931;SDS011;41837;55.700;37.984;2024-03-29T07:41:54;15.13;;;6.97;;
55931;SDS011;41837;55.700;37.984;2024-03-29T07:44:20;14.30;;;6.60;;
55931;SDS011;41837;55.700;37.984;2024-03-29T07:46:46;12.80;;;6.63;;
55931;SDS011;41837;55.700;37.984;2024-03-29T07:49:14;9.73;;;5.35;;
55931;SDS011;41837;55.700;37.984;2024-03-29T07:51:40;17.25;;;6.82;;
55931;SDS011;41837;55.700;37.984;2024-03-29T07:54:06;12.68;;;6.57;;
55931;SDS011;41837;55.700;37.984;2024-03-29T07:56:32;16.05;;;6.80;;
55931;SDS011;41837;55.700;37.984;2024-03-29T07:58:58;15.98;;;6.10;;
55931;SDS011;41837;55.700;37.984;2024-03-29T08:01:24;12.05;;;6.38;;
55931;SDS011;41837;55.700;37.984;2024-03-29T08:03:51;16.90;;;7.68;;
55931;SDS011;41837;55.700;37.984;2024-03-29T08:06:19;15.95;;;6.85;;
55931;SDS011;41837;55.700;37.984;2024-03-29T08:08:45;16.10;;;7.07;;
55931;SDS011;41837;55.700;37.984;2024-03-29T08:11:12;18.08;;;7.22;;
55931;SDS011;41837;55.700;37.984;2024-03-29T08:13:39;16.88;;;7.88;;
55931;SDS011;41837;55.700;37.984;2024-03-29T08:16:06;19.52;;;7.32;;
55931;SDS011;41837;55.700;37.984;2024-03-29T08:18:33;17.48;;;7.15;;
55931;SDS011;41837;55.700;37.984;2024-03-29T08:20:59;13.43;;;6.80;;
55931;SDS011;41837;55.700;37.984;2024-03-29T08:23:26;14.45;;;7.18;;
55931;SDS011;41837;55.700;37.984;2024-03-29T08:25:52;14.05;;;6.53;;
55931;SDS011;41837;55.700;37.984;2024-03-29T08:28:22;20.73;;;7.90;;
55931;SDS011;41837;55.700;37.984;2024-03-29T08:31:02;19.27;;;8.20;;
55931;SDS011;41837;55.700;37.984;2024-03-29T08:33:32;20.88;;;7.95;;
55931;SDS011;41837;55.700;37.984;2024-03-29T08:35:58;22.48;;;8.40;;
55931;SDS011;41837;55.700;37.984;2024-03-29T08:38:24;28.77;;;9.52;;
55931;SDS011;41837;55.700;37.984;2024-03-29T08:40:51;20.92;;;8.35;;
55931;SDS011;41837;55.700;37.984;2024-03-29T08:43:17;18.92;;;8.60;;
55931;SDS011;41837;55.700;37.984;2024-03-29T08:45:46;15.95;;;8.20;;
55931;SDS011;41837;55.700;37.984;2024-03-29T08:48:13;13.70;;;7.93;;
55931;SDS011;41837;55.700;37.984;2024-03-29T08:50:39;16.42;;;8.18;;
55931;SDS011;41837;55.700;37.984;2024-03-29T08:53:05;15.88;;;8.05;;
55931;SDS011;41837;55.700;37.984;2024-03-29T08:55:32;16.77;;;8.60;;
55931;SDS011;41837;55.700;37.984;2024-03-29T08:58:00;17.98;;;8.57;;
55931;SDS011;41837;55.700;37.984;2024-03-29T09:00:28;17.90;;;7.70;;
55931;SDS011;41837;55.700;37.984;2024-03-29T09:02:56;14.27;;;8.77;;
55931;SDS011;41837;55.700;37.984;2024-03-29T09:05:23;18.73;;;8.27;;
55931;SDS011;41837;55.700;37.984;2024-03-29T09:07:50;14.65;;;7.82;;
55931;SDS011;41837;55.700;37.984;2024-03-29T09:10:16;13.95;;;8.15;;
55931;SDS011;41837;55.700;37.984;2024-03-29T09:12:43;17.70;;;8.45;;
55931;SDS011;41837;55.700;37.984;2024-03-29T09:15:10;17.38;;;9.05;;
55931;SDS011;41837;55.700;37.984;2024-03-29T09:17:39;14.48;;;8.27;;
55931;SDS011;41837;55.700;37.984;2024-03-29T09:20:07;14.85;;;8.10;;
55931;SDS011;41837;55.700;37.984;2024-03-29T09:22:33;13.82;;;7.82;;
55931;SDS011;41837;55.700;37.984;2024-03-29T09:25:00;16.95;;;8.82;;
55931;SDS011;41837;55.700;37.984;2024-03-29T09:27:27;17.60;;;9.18;;
55931;SDS011;41837;55.700;37.984;2024-03-29T09:29:56;16.98;;;8.38;;
55931;SDS011;41837;55.700;37.984;2024-03-29T09:32:23;15.40;;;8.38;;
55931;SDS011;41837;55.700;37.984;2024-03-29T09:34:49;18.52;;;8.25;;
55931;SDS011;41837;55.700;37.984;2024-03-29T09:37:16;15.52;;;8.93;;
55931;SDS011;41837;55.700;37.984;2024-03-29T09:39:43;16.48;;;8.23;;
55931;SDS011;41837;55.700;37.984;2024-03-29T09:42:11;13.60;;;7.78;;
55931;SDS011;41837;55.700;37.984;2024-03-29T09:44:43;18.05;;;8.30;;
55931;SDS011;41837;55.700;37.984;2024-03-29T09:47:13;17.92;;;8.07;;
55931;SDS011;41837;55.700;37.984;2024-03-29T09:49:43;17.77;;;8.32;;
55931;SDS011;41837;55.700;37.984;2024-03-29T09:52:13;16.70;;;8.82;;
55931;SDS011;41837;55.700;37.984;2024-03-29T09:54:40;17.10;;;8.00;;
55931;SDS011;41837;55.700;37.984;2024-03-29T09:57:31;18.50;;;8.48;;
55931;SDS011;41837;55.700;37.984;2024-03-29T09:59:58;19.00;;;9.57;;
55931;SDS011;41837;55.700;37.984;2024-03-29T10:02:31;20.85;;;9.35;;
55931;SDS011;41837;55.700;37.984;2024-03-29T10:04:58;19.02;;;8.48;;
55931;SDS011;41837;55.700;37.984;2024-03-29T10:07:29;17.23;;;8.90;;
55931;SDS011;41837;55.700;37.984;2024-03-29T10:09:58;17.25;;;9.07;;
55931;SDS011;41837;55.700;37.984;2024-03-29T10:12:27;18.77;;;9.65;;
55931;SDS011;41837;55.700;37.984;2024-03-29T10:14:54;29.73;;;8.90;;
55931;SDS011;41837;55.700;37.984;2024-03-29T10:17:31;20.10;;;9.63;;
55931;SDS011;41837;55.700;37.984;2024-03-29T10:20:01;17.60;;;9.02;;
55931;SDS011;41837;55.700;37.984;2024-03-29T10:22:51;24.00;;;9.45;;
55931;SDS011;41837;55.700;37.984;2024-03-29T10:25:17;18.23;;;8.75;;
55931;SDS011;41837;55.700;37.984;2024-03-29T10:27:44;17.10;;;8.75;;
55931;SDS011;41837;55.700;37.984;2024-03-29T10:30:10;19.42;;;9.07;;
55931;SDS011;41837;55.700;37.984;2024-03-29T10:32:40;22.67;;;9.95;;
55931;SDS011;41837;55.700;37.984;2024-03-29T10:35:07;22.27;;;10.13;;
55931;SDS011;41837;55.700;37.984;2024-03-29T10:37:37;17.55;;;9.50;;
55931;SDS011;41837;55.700;37.984;2024-03-29T10:40:09;17.85;;;8.82;;
55931;SDS011;41837;55.700;37.984;2024-03-29T10:42:36;19.50;;;9.35;;
55931;SDS011;41837;55.700;37.984;2024-03-29T10:45:07;20.20;;;10.23;;
55931;SDS011;41837;55.700;37.984;2024-03-29T10:47:34;15.48;;;9.13;;
55931;SDS011;41837;55.700;37.984;2024-03-29T10:50:00;19.55;;;9.82;;
55931;SDS011;41837;55.700;37.984;2024-03-29T10:52:31;18.67;;;8.95;;
55931;SDS011;41837;55.700;37.984;2024-03-29T10:54:57;17.48;;;9.60;;
55931;SDS011;41837;55.700;37.984;2024-03-29T10:57:25;20.48;;;9.88;;
55931;SDS011;41837;55.700;37.984;2024-03-29T11:02:34;20.70;;;9.82;;
55931;SDS011;41837;55.700;37.984;2024-03-29T11:05:09;18.35;;;9.77;;
55931;SDS011;41837;55.700;37.984;2024-03-29T11:07:41;18.30;;;9.43;;
55931;SDS011;41837;55.700;37.984;2024-03-29T11:10:30;28.23;;;10.00;;
55931;SDS011;41837;55.700;37.984;2024-03-29T11:13:01;20.83;;;9.38;;
55931;SDS011;41837;55.700;37.984;2024-03-29T11:15:40;19.85;;;9.88;;
55931;SDS011;41837;55.700;37.984;2024-03-29T11:18:07;24.02;;;10.30;;
55931;SDS011;41837;55.700;37.984;2024-03-29T11:20:35;18.15;;;9.65;;
55931;SDS011;41837;55.700;37.984;2024-03-29T11:23:08;20.38;;;10.18;;
55931;SDS011;41837;55.700;37.984;2024-03-29T11:25:46;17.90;;;10.52;;
55931;SDS011;41837;55.700;37.984;2024-03-29T11:28:32;21.88;;;10.52;;
55931;SDS011;41837;55.700;37.984;2024-03-29T11:31:01;22.10;;;11.67;;
55931;SDS011;41837;55.700;37.984;2024-03-29T11:38:56;24.05;;;11.82;;
55931;SDS011;41837;55.700;37.984;2024-03-29T11:41:24;20.13;;;10.73;;
55931;SDS011;41837;55.700;37.984;2024-03-29T11:43:52;22.58;;;11.93;;
55931;SDS011;41837;55.700;37.984;2024-03-29T11:46:19;20.13;;;10.80;;
55931;SDS011;41837;55.700;37.984;2024-03-29T11:48:46;21.15;;;11.48;;
55931;SDS011;41837;55.700;37.984;2024-03-29T11:51:20;22.42;;;10.60;;
55931;SDS011;41837;55.700;37.984;2024-03-29T11:53:49;18.88;;;10.23;;
55931;SDS011;41837;55.700;37.984;2024-03-29T11:56:17;20.40;;;10.13;;
55931;SDS011;41837;55.700;37.984;2024-03-29T11:58:44;24.95;;;10.45;;
55931;SDS011;41837;55.700;37.984;2024-03-29T12:01:10;20.42;;;10.82;;
55931;SDS011;41837;55.700;37.984;2024-03-29T12:03:39;25.73;;;10.35;;
55931;SDS011;41837;55.700;37.984;2024-03-29T12:06:07;24.38;;;10.48;;
55931;SDS011;41837;55.700;37.984;2024-03-29T12:08:40;20.17;;;10.75;;
55931;SDS011;41837;55.700;37.984;2024-03-29T12:11:08;22.90;;;10.60;;
55931;SDS011;41837;55.700;37.984;2024-03-29T12:13:35;22.42;;;10.50;;
55931;SDS011;41837;55.700;37.984;2024-03-29T12:16:01;25.33;;;10.98;;
55931;SDS011;41837;55.700;37.984;2024-03-29T12:18:29;19.90;;;11.23;;
55931;SDS011;41837;55.700;37.984;2024-03-29T12:20:58;23.23;;;11.15;;
55931;SDS011;41837;55.700;37.984;2024-03-29T12:23:36;27.92;;;11.23;;
55931;SDS011;41837;55.700;37.984;2024-03-29T12:26:02;22.90;;;11.75;;
55931;SDS011;41837;55.700;37.984;2024-03-29T12:28:48;20.90;;;11.35;;
55931;SDS011;41837;55.700;37.984;2024-03-29T12:31:14;19.38;;;10.63;;
55931;SDS011;41837;55.700;37.984;2024-03-29T12:33:50;25.17;;;11.48;;
55931;SDS011;41837;55.700;37.984;2024-03-29T12:36:17;22.27;;;11.60;;
55931;SDS011;41837;55.700;37.984;2024-03-29T12:38:46;22.70;;;10.98;;
55931;SDS011;41837;55.700;37.984;2024-03-29T12:41:18;26.58;;;13.10;;
55931;SDS011;41837;55.700;37.984;2024-03-29T12:43:44;28.25;;;13.15;;
55931;SDS011;41837;55.700;37.984;2024-03-29T12:46:11;23.33;;;12.20;;
55931;SDS011;41837;55.700;37.984;2024-03-29T12:48:37;23.38;;;12.40;;
55931;SDS011;41837;55.700;37.984;2024-03-29T12:51:17;30.42;;;13.88;;
55931;SDS011;41837;55.700;37.984;2024-03-29T12:53:44;26.15;;;12.63;;
55931;SDS011;41837;55.700;37.984;2024-03-29T12:56:10;28.25;;;13.15;;
55931;SDS011;41837;55.700;37.984;2024-03-29T12:58:37;25.02;;;12.70;;
55931;SDS011;41837;55.700;37.984;2024-03-29T13:01:03;31.38;;;13.27;;
55931;SDS011;41837;55.700;37.984;2024-03-29T13:03:31;27.08;;;12.38;;
55931;SDS011;41837;55.700;37.984;2024-03-29T13:05:58;27.67;;;12.70;;
55931;SDS011;41837;55.700;37.984;2024-03-29T13:08:23;24.23;;;12.95;;
55931;SDS011;41837;55.700;37.984;2024-03-29T13:11:02;26.38;;;13.05;;
55931;SDS011;41837;55.700;37.984;2024-03-29T13:13:28;27.13;;;12.63;;
55931;SDS011;41837;55.700;37.984;2024-03-29T13:15:55;27.63;;;12.63;;
55931;SDS011;41837;55.700;37.984;2024-03-29T13:18:46;25.20;;;13.18;;
55931;SDS011;41837;55.700;37.984;2024-03-29T13:21:12;25.20;;;13.38;;
55931;SDS011;41837;55.700;37.984;2024-03-29T13:23:38;29.05;;;13.73;;
55931;SDS011;41837;55.700;37.984;2024-03-29T13:26:04;26.58;;;13.93;;
55931;SDS011;41837;55.700;37.984;2024-03-29T13:28:31;27.70;;;13.10;;
55931;SDS011;41837;55.700;37.984;2024-03-29T13:30:58;27.10;;;13.15;;
55931;SDS011;41837;55.700;37.984;2024-03-29T13:33:24;28.40;;;13.95;;
55931;SDS011;41837;55.700;37.984;2024-03-29T13:35:52;26.10;;;12.57;;
55931;SDS011;41837;55.700;37.984;2024-03-29T13:38:19;25.00;;;13.30;;
55931;SDS011;41837;55.700;37.984;2024-03-29T13:40:48;26.92;;;13.35;;
55931;SDS011;41837;55.700;37.984;2024-03-29T13:43:15;29.80;;;13.75;;
55931;SDS011;41837;55.700;37.984;2024-03-29T13:45:42;28.15;;;13.82;;
55931;SDS011;41837;55.700;37.984;2024-03-29T13:48:08;28.58;;;12.75;;
55931;SDS011;41837;55.700;37.984;2024-03-29T13:50:34;25.48;;;12.98;;
55931;SDS011;41837;55.700;37.984;2024-03-29T13:53:01;25.20;;;12.80;;
55931;SDS011;41837;55.700;37.984;2024-03-29T13:55:30;25.83;;;12.85;;
55931;SDS011;41837;55.700;37.984;2024-03-29T13:57:55;23.33;;;13.10;;
55931;SDS011;41837;55.700;37.984;2024-03-29T14:00:34;36.60;;;13.75;;
55931;SDS011;41837;55.700;37.984;2024-03-29T14:03:00;26.77;;;13.30;;
55931;SDS011;41837;55.700;37.984;2024-03-29T14:05:28;31.20;;;13.57;;
55931;SDS011;41837;55.700;37.984;2024-03-29T14:07:55;35.95;;;14.20;;
55931;SDS011;41837;55.700;37.984;2024-03-29T14:10:21;27.83;;;13.60;;
55931;SDS011;41837;55.700;37.984;2024-03-29T14:12:47;26.58;;;13.45;;
55931;SDS011;41837;55.700;37.984;2024-03-29T14:15:17;26.17;;;13.00;;
55931;SDS011;41837;55.700;37.984;2024-03-29T14:17:44;27.15;;;13.82;;
55931;SDS011;41837;55.700;37.984;2024-03-29T14:20:10;33.50;;;14.30;;
55931;SDS011;41837;55.700;37.984;2024-03-29T14:22:36;28.10;;;13.90;;
55931;SDS011;41837;55.700;37.984;2024-03-29T14:25:03;25.15;;;13.15;;
55931;SDS011;41837;55.700;37.984;2024-03-29T14:27:29;27.27;;;13.70;;
55931;SDS011;41837;55.700;37.984;2024-03-29T14:29:56;31.38;;;15.00;;